Time;durP1;ratioP1;P1;durP2;ratioP2;P2;SDS_P1;SDS_P2;PMS_P1;PMS_P2;Temp;Humidity;BMP_temperature;BMP_pressure;BME280_temperature;BME280_humidity;BME280_pressure;Samples;Min_cycle;Max_cycle;Signal;HPM_P1;HPM_P2
2023/11/03 00:01:28;;;;;;;43.07;25.47;;;;;;;11.90;100.00;94004.56;5055483;28;20451;-73
2023/11/03 00:03:56;;;;;;;36.13;24.13;;;;;;;11.91;100.00;94003.59;5055653;28;21003;-72
2023/11/03 00:06:24;;;;;;;38.20;22.43;;;;;;;12.00;100.00;93994.72;5036495;28;20451;-73
2023/11/03 00:08:51;;;;;;;44.93;23.17;;;;;;;12.05;100.00;93987.19;5054385;28;20449;-73
2023/11/03 00:11:17;;;;;;;45.20;26.20;;;;;;;12.09;100.00;93978.81;5054050;28;20446;-73
2023/11/03 00:13:45;;;;;;;39.23;25.80;;;;;;;12.02;100.00;93979.63;5054013;28;20816;-74
2023/11/03 00:16:13;;;;;;;41.97;25.90;;;;;;;12.18;100.00;93992.81;5052850;28;20462;-74
2023/11/03 00:18:42;;;;;;;40.30;23.93;;;;;;;12.25;100.00;93987.72;5053341;28;20490;-73
2023/11/03 00:21:09;;;;;;;36.43;24.07;;;;;;;12.31;100.00;93987.88;5052575;28;20501;-73
2023/11/03 00:23:36;;;;;;;38.37;23.13;;;;;;;12.38;100.00;93977.53;5034714;28;20450;-74
2023/11/03 00:26:03;;;;;;;34.73;22.93;;;;;;;12.42;100.00;93978.84;5034553;28;20439;-74
2023/11/03 00:28:30;;;;;;;43.97;26.37;;;;;;;12.49;100.00;93974.59;5052361;28;20448;-73
2023/11/03 00:30:57;;;;;;;37.13;22.60;;;;;;;12.54;100.00;93984.63;5052596;28;20469;-75
2023/11/03 00:33:24;;;;;;;34.03;23.20;;;;;;;12.41;100.00;93980.66;5052550;28;20443;-75
2023/11/03 00:35:52;;;;;;;34.00;23.70;;;;;;;12.43;100.00;93985.75;5055018;28;20553;-74
2023/11/03 00:38:19;;;;;;;31.97;20.93;;;;;;;12.40;100.00;93994.78;5055746;28;20482;-75
2023/11/03 00:40:46;;;;;;;38.53;22.93;;;;;;;12.44;100.00;93995.31;5057697;28;20917;-75
2023/11/03 00:43:14;;;;;;;33.50;21.60;;;;;;;12.39;100.00;94005.47;5056011;28;20450;-74
2023/11/03 00:45:40;;;;;;;35.13;22.80;;;;;;;12.32;100.00;93999.22;5057093;28;20439;-74
2023/11/03 00:48:07;;;;;;;35.00;24.70;;;;;;;12.25;100.00;93980.66;5057140;28;20447;-75
2023/11/03 00:50:34;;;;;;;46.63;25.27;;;;;;;12.19;100.00;93999.72;5038131;28;20450;-75
2023/11/03 00:53:02;;;;;;;36.10;23.60;;;;;;;12.19;100.00;93996.25;5038055;28;20432;-74
2023/11/03 00:55:29;;;;;;;320.40;106.07;;;;;;;12.17;100.00;93978.00;5056531;28;20449;-74
2023/11/03 00:57:56;;;;;;;32.00;23.63;;;;;;;12.00;100.00;93958.75;5056511;28;20969;-74
2023/11/03 01:00:25;;;;;;;39.00;23.87;;;;;;;11.84;100.00;93974.47;5055512;28;20453;-74
2023/11/03 01:02:52;;;;;;;98.90;63.97;;;;;;;11.87;100.00;93957.56;5055073;28;20441;-75
2023/11/03 01:05:21;;;;;;;45.43;25.80;;;;;;;11.90;100.00;93979.09;5055128;28;20762;-75
2023/11/03 01:07:48;;;;;;;92.77;56.73;;;;;;;11.91;100.00;93999.16;5057323;28;20921;-74
2023/11/03 01:10:16;;;;;;;82.47;44.93;;;;;;;11.74;100.00;93977.22;5056310;28;20445;-73
2023/11/03 01:12:45;;;;;;;35.00;22.73;;;;;;;11.54;100.00;93973.19;5038068;28;20804;-74
2023/11/03 01:15:13;;;;;;;54.67;26.20;;;;;;;11.37;100.00;93972.31;5056555;28;21006;-74
2023/11/03 01:17:41;;;;;;;359.30;166.60;;;;;;;11.40;100.00;93986.94;5055526;28;20535;-74
2023/11/03 01:20:12;;;;;;;47.30;26.27;;;;;;;11.45;100.00;93984.66;5037294;28;20488;-74
2023/11/03 01:22:40;;;;;;;37.93;27.57;;;;;;;11.57;100.00;93993.91;5055618;28;20854;-74
2023/11/03 01:25:08;;;;;;;42.77;26.90;;;;;;;11.57;100.00;93987.84;5055236;28;20449;-74
2023/11/03 01:27:36;;;;;;;47.33;28.07;;;;;;;11.64;100.00;94015.13;5054928;28;20450;-74
2023/11/03 01:30:04;;;;;;;40.37;27.40;;;;;;;11.64;100.00;94012.50;5056129;28;20452;-74
2023/11/03 01:32:33;;;;;;;43.90;27.93;;;;;;;11.73;100.00;94022.03;5037303;28;20973;-73
2023/11/03 01:35:00;;;;;;;53.37;29.60;;;;;;;11.73;100.00;94025.50;5055218;28;20446;-74
2023/11/03 01:37:27;;;;;;;48.57;30.43;;;;;;;11.77;100.00;94024.19;5037284;28;20817;-74
2023/11/03 01:39:54;;;;;;;51.90;28.93;;;;;;;11.69;100.00;94003.16;5055582;28;20455;-74
2023/11/03 01:42:20;;;;;;;50.73;29.93;;;;;;;11.72;100.00;94018.59;5036656;28;20464;-74
2023/11/03 01:44:49;;;;;;;42.53;27.63;;;;;;;11.76;100.00;94001.53;5055627;28;20457;-74
2023/11/03 01:47:15;;;;;;;42.20;26.97;;;;;;;11.78;100.00;94011.91;5054074;28;20495;-72
2023/11/03 01:49:44;;;;;;;43.37;28.10;;;;;;;11.90;100.00;94018.53;5036676;28;20439;-73
2023/11/03 01:52:11;;;;;;;52.20;28.80;;;;;;;11.92;100.00;94008.69;5054558;28;20451;-74
2023/11/03 01:54:38;;;;;;;46.17;29.30;;;;;;;11.80;100.00;94017.81;5054321;28;20792;-73
2023/11/03 01:57:05;;;;;;;43.03;27.93;;;;;;;11.93;100.00;94015.59;5054533;28;20493;-74
2023/11/03 01:59:32;;;;;;;47.87;26.03;;;;;;;11.83;100.00;94022.75;5056420;28;20495;-74
2023/11/03 02:02:01;;;;;;;44.17;27.60;;;;;;;11.91;100.00;94004.41;5055399;28;20449;-73
2023/11/03 02:04:27;;;;;;;35.30;25.63;;;;;;;11.94;100.00;94000.63;5055026;28;20920;-75
2023/11/03 02:06:55;;;;;;;49.63;29.50;;;;;;;12.03;100.00;94013.63;5035199;28;20447;-73
2023/11/03 02:09:21;;;;;;;39.97;28.50;;;;;;;11.93;100.00;94009.50;5053984;28;20461;-73
2023/11/03 02:11:48;;;;;;;37.33;27.00;;;;;;;11.67;100.00;94004.28;5053758;28;20466;-74
2023/11/03 02:14:16;;;;;;;43.47;26.17;;;;;;;11.77;100.00;93976.88;5034701;28;20959;-74
2023/11/03 02:16:43;;;;;;;47.33;30.57;;;;;;;11.36;100.00;93947.03;5054479;28;20453;-73
2023/11/03 02:19:12;;;;;;;45.60;28.07;;;;;;;11.52;100.00;93951.50;5055226;28;20483;-75
2023/11/03 02:21:39;;;;;;;45.43;27.73;;;;;;;11.60;100.00;93953.34;5054915;28;20453;-74
2023/11/03 02:24:08;;;;;;;44.07;28.30;;;;;;;11.73;100.00;93970.31;5054665;28;20773;-74
2023/11/03 02:26:36;;;;;;;44.80;30.10;;;;;;;11.82;100.00;93958.03;5036591;28;20461;-74
2023/11/03 02:29:03;;;;;;;41.03;28.13;;;;;;;11.92;100.00;93945.59;5055372;28;20783;-74
2023/11/03 02:31:30;;;;;;;45.90;28.13;;;;;;;11.96;100.00;93952.16;5054707;28;20504;-74
2023/11/03 02:33:57;;;;;;;47.73;26.67;;;;;;;11.93;100.00;93949.03;5055024;28;20776;-73
2023/11/03 02:36:24;;;;;;;44.03;26.60;;;;;;;11.95;100.00;93933.94;5055647;28;20446;-73
2023/11/03 02:38:52;;;;;;;40.93;25.23;;;;;;;12.00;100.00;93931.63;5055444;28;20486;-73
2023/11/03 02:41:21;;;;;;;42.23;26.80;;;;;;;11.96;100.00;93946.09;5053560;28;20452;-74
2023/11/03 02:43:48;;;;;;;45.20;27.43;;;;;;;11.97;100.00;93961.69;5053618;28;20447;-74
2023/11/03 02:46:15;;;;;;;44.17;28.20;;;;;;;11.89;100.00;93942.47;5036220;28;20469;-74
2023/11/03 02:48:42;;;;;;;45.07;28.73;;;;;;;11.88;100.00;93931.13;5054191;28;20451;-74
2023/11/03 02:51:09;;;;;;;44.77;28.70;;;;;;;11.84;100.00;93931.59;5054255;28;20461;-74
2023/11/03 02:53:35;;;;;;;49.90;29.23;;;;;;;11.90;100.00;93955.44;5055471;28;20457;-73
2023/11/03 02:56:03;;;;;;;54.63;30.97;;;;;;;11.87;100.00;93950.50;5054489;28;20453;-73
2023/11/03 02:58:35;;;;;;;44.17;27.90;;;;;;;11.80;100.00;93957.38;5052795;28;20487;-74
2023/11/03 03:01:02;;;;;;;47.60;28.23;;;;;;;11.70;100.00;93956.66;5053246;28;20478;-74
2023/11/03 03:03:28;;;;;;;50.10;30.50;;;;;;;11.69;100.00;93949.75;5053239;28;20445;-73
2023/11/03 03:05:56;;;;;;;44.10;28.57;;;;;;;11.82;100.00;93947.53;5034678;28;20457;-73
2023/11/03 03:08:22;;;;;;;48.13;26.60;;;;;;;11.93;100.00;93972.69;5053494;28;20875;-74
2023/11/03 03:10:49;;;;;;;48.23;28.10;;;;;;;11.89;100.00;93950.34;5054867;28;20450;-74
2023/11/03 03:13:16;;;;;;;50.07;29.33;;;;;;;11.75;100.00;93926.28;5054162;28;20461;-73
2023/11/03 03:15:44;;;;;;;46.70;27.73;;;;;;;11.85;100.00;93962.16;5053976;28;20442;-74
2023/11/03 03:18:11;;;;;;;42.57;28.03;;;;;;;11.94;100.00;93951.50;5053979;28;20497;-74
2023/11/03 03:20:38;;;;;;;47.00;30.60;;;;;;;11.88;100.00;93940.81;5054363;28;20449;-74
2023/11/03 03:23:04;;;;;;;41.97;27.70;;;;;;;11.92;100.00;93937.69;5053000;28;20453;-74
2023/11/03 03:25:31;;;;;;;47.90;27.50;;;;;;;11.98;100.00;93959.88;5053131;28;20450;-74
2023/11/03 03:27:58;;;;;;;45.77;28.77;;;;;;;12.04;100.00;93948.72;5053470;28;20933;-75
2023/11/03 03:30:25;;;;;;;50.43;28.27;;;;;;;12.15;100.00;93940.53;5052789;28;20447;-74
2023/11/03 03:32:53;;;;;;;47.47;26.53;;;;;;;12.24;100.00;93950.06;5052484;28;20442;-74
2023/11/03 03:35:20;;;;;;;42.50;28.17;;;;;;;12.26;100.00;93937.56;5052629;28;21000;-75
2023/11/03 03:37:47;;;;;;;49.30;28.27;;;;;;;12.20;100.00;93948.75;5052734;28;20494;-74
2023/11/03 03:40:14;;;;;;;46.87;29.00;;;;;;;12.17;100.00;93941.19;5052366;28;20438;-74
2023/11/03 03:42:41;;;;;;;47.37;29.40;;;;;;;12.18;100.00;93948.09;5054879;28;21094;-74
2023/11/03 03:45:10;;;;;;;46.10;29.20;;;;;;;12.05;100.00;93943.28;5054678;28;20476;-74
2023/11/03 03:47:37;;;;;;;42.93;28.73;;;;;;;12.06;100.00;93952.00;5052401;28;20949;-75
2023/11/03 03:50:07;;;;;;;54.90;33.13;;;;;;;12.08;100.00;93958.75;5054640;28;20447;-74
2023/11/03 03:52:34;;;;;;;53.80;29.60;;;;;;;12.01;100.00;93938.53;5053967;28;20442;-73
2023/11/03 03:55:01;;;;;;;49.60;30.60;;;;;;;12.02;100.00;93927.84;5035429;28;20439;-74
2023/11/03 03:57:28;;;;;;;44.13;29.30;;;;;;;12.04;100.00;93938.19;5053764;28;20485;-74
2023/11/03 03:59:54;;;;;;;53.83;29.97;;;;;;;12.12;100.00;93925.06;5052912;28;20814;-73
2023/11/03 04:02:21;;;;;;;48.43;31.83;;;;;;;12.09;100.00;93920.94;5053589;28;20472;-75
2023/11/03 04:04:48;;;;;;;43.50;28.37;;;;;;;12.17;100.00;93901.75;5034145;28;20479;-74
2023/11/03 04:07:17;;;;;;;47.53;29.10;;;;;;;12.05;100.00;93890.72;5051225;28;20465;-73
2023/11/03 04:09:43;;;;;;;43.80;27.90;;;;;;;11.98;100.00;93894.16;5048861;28;20944;-75
2023/11/03 04:12:10;;;;;;;56.80;31.20;;;;;;;11.96;100.00;93893.50;5056431;28;20971;-74
2023/11/03 04:14:37;;;;;;;49.40;30.10;;;;;;;11.88;100.00;93891.69;5056945;28;20449;-74
2023/11/03 04:17:05;;;;;;;54.23;32.37;;;;;;;11.94;100.00;93900.72;5056876;28;20444;-73
2023/11/03 04:19:32;;;;;;;48.60;29.33;;;;;;;11.86;100.00;93887.59;5038571;28;21055;-74
2023/11/03 04:21:59;;;;;;;46.97;30.63;;;;;;;11.88;100.00;93870.66;5057002;28;20438;-74
2023/11/03 04:24:27;;;;;;;46.63;30.80;;;;;;;11.71;100.00;93879.47;5056604;28;20446;-74
2023/11/03 04:26:55;;;;;;;49.20;30.00;;;;;;;11.81;100.00;93877.53;5055164;28;20434;-73
2023/11/03 04:29:21;;;;;;;47.37;30.20;;;;;;;11.91;100.00;93853.75;5056616;28;20476;-74
2023/11/03 04:31:48;;;;;;;48.50;29.80;;;;;;;12.03;100.00;93834.84;5021128;28;20447;-76
2023/11/03 04:34:15;;;;;;;44.23;26.80;;;;;;;12.05;100.00;93838.13;5056160;28;20434;-74
2023/11/03 04:36:42;;;;;;;43.73;27.80;;;;;;;12.07;100.00;93864.25;5057621;28;20447;-73
2023/11/03 04:39:08;;;;;;;44.50;28.50;;;;;;;12.10;100.00;93874.44;5056688;28;20509;-73
2023/11/03 04:41:37;;;;;;;51.67;29.00;;;;;;;12.39;100.00;93897.59;5057323;28;20520;-75
2023/11/03 04:44:03;;;;;;;45.30;27.37;;;;;;;12.33;100.00;93901.72;5057402;28;20474;-72
2023/11/03 04:46:30;;;;;;;49.63;29.13;;;;;;;12.27;100.00;93902.41;5056694;28;20812;-74
2023/11/03 04:48:57;;;;;;;49.60;28.93;;;;;;;12.28;100.00;93900.59;5037781;28;20426;-74
2023/11/03 04:51:25;;;;;;;46.63;27.77;;;;;;;12.24;100.00;93908.00;5056198;28;20439;-73
2023/11/03 04:53:52;;;;;;;40.47;26.20;;;;;;;12.45;100.00;93902.25;5055467;28;20949;-74
2023/11/03 04:56:19;;;;;;;33.27;22.40;;;;;;;12.29;100.00;93889.91;5021048;28;20862;-75
2023/11/03 04:58:48;;;;;;;47.90;24.90;;;;;;;12.33;100.00;93901.72;5021000;28;20858;-74
2023/11/03 05:01:15;;;;;;;41.80;26.37;;;;;;;12.53;100.00;93896.13;5056171;28;20446;-75
2023/11/03 05:03:42;;;;;;;44.50;26.50;;;;;;;12.71;100.00;93888.84;5055702;28;20468;-74
2023/11/03 05:06:09;;;;;;;41.70;25.87;;;;;;;12.68;100.00;93891.81;5055215;28;20450;-74
2023/11/03 05:08:36;;;;;;;41.23;25.97;;;;;;;12.73;100.00;93886.09;5055391;28;20982;-74
2023/11/03 05:11:03;;;;;;;41.37;24.70;;;;;;;12.74;100.00;93877.19;5020182;28;20451;-72
2023/11/03 05:13:30;;;;;;;33.80;22.50;;;;;;;12.64;100.00;93869.47;5055537;28;20995;-72
2023/11/03 05:15:58;;;;;;;49.03;25.03;;;;;;;12.77;100.00;93869.78;5054634;28;20442;-74
2023/11/03 05:18:26;;;;;;;35.43;22.23;;;;;;;12.73;100.00;93850.06;5054778;28;20494;-73
2023/11/03 05:20:53;;;;;;;28.93;19.43;;;;;;;12.60;100.00;93860.25;5036605;28;20448;-75
2023/11/03 05:23:20;;;;;;;30.77;20.03;;;;;;;12.77;100.00;93867.16;5055864;28;20452;-74
2023/11/03 05:25:47;;;;;;;29.50;18.97;;;;;;;12.86;100.00;93847.69;5055520;28;20444;-73
2023/11/03 05:28:15;;;;;;;28.77;18.90;;;;;;;12.98;100.00;93827.88;5055250;28;20486;-73
2023/11/03 05:30:41;;;;;;;36.17;20.17;;;;;;;13.27;100.00;93826.47;5054300;28;20945;-73
2023/11/03 05:33:09;;;;;;;27.70;19.10;;;;;;;13.63;100.00;93843.44;5036310;28;20436;-73
2023/11/03 05:35:36;;;;;;;27.03;17.23;;;;;;;13.92;100.00;93832.19;5054824;28;20440;-74
2023/11/03 05:38:04;;;;;;;27.20;17.67;;;;;;;13.78;100.00;93822.38;5054738;28;20512;-73
2023/11/03 05:40:31;;;;;;;26.00;16.63;;;;;;;13.64;100.00;93820.53;5054537;28;20438;-74
2023/11/03 05:42:58;;;;;;;26.80;13.90;;;;;;;13.50;100.00;93816.81;5055014;28;20452;-73
2023/11/03 05:45:25;;;;;;;19.20;13.50;;;;;;;13.38;100.00;93814.75;5054328;28;20934;-72
2023/11/03 05:47:52;;;;;;;24.23;14.80;;;;;;;13.23;100.00;93814.66;5054859;28;20807;-72
2023/11/03 05:50:20;;;;;;;24.53;17.83;;;;;;;13.20;100.00;93817.63;5019457;28;20444;-76
2023/11/03 05:52:47;;;;;;;22.47;15.80;;;;;;;13.24;100.00;93832.09;5019341;28;20439;-73
2023/11/03 05:55:13;;;;;;;21.20;15.20;;;;;;;13.19;100.00;93816.00;5055002;28;20449;-74
2023/11/03 05:57:40;;;;;;;19.77;14.23;;;;;;;13.24;100.00;93806.56;5054787;28;20429;-74
2023/11/03 06:00:09;;;;;;;23.00;15.87;;;;;;;13.27;100.00;93814.13;5054856;28;20479;-74
2023/11/03 06:02:37;;;;;;;25.00;14.93;;;;;;;13.27;100.00;93818.56;5053757;28;20473;-74
2023/11/03 06:05:05;;;;;;;20.30;14.50;;;;;;;13.33;100.00;93815.28;5053873;28;20440;-75
2023/11/03 06:07:34;;;;;;;21.30;14.83;;;;;;;13.38;100.00;93820.84;5054716;28;20434;-75
2023/11/03 06:10:00;;;;;;;20.93;15.80;;;;;;;13.50;100.00;93801.00;5054941;28;20451;-75
2023/11/03 06:12:27;;;;;;;22.43;15.00;;;;;;;13.54;100.00;93801.47;5053918;28;20445;-75
2023/11/03 06:14:54;;;;;;;22.37;16.17;;;;;;;13.60;100.00;93790.25;5054972;28;20786;-74
2023/11/03 06:17:21;;;;;;;26.47;16.20;;;;;;;13.72;100.00;93798.56;5020342;28;20445;-74
2023/11/03 06:19:47;;;;;;;19.40;15.17;;;;;;;13.79;100.00;93812.66;5054929;28;20490;-75
2023/11/03 06:22:14;;;;;;;22.47;15.00;;;;;;;13.90;100.00;93807.00;5054299;28;20472;-74
2023/11/03 06:24:42;;;;;;;21.23;17.03;;;;;;;13.99;100.00;93800.66;5054930;28;20439;-75
2023/11/03 06:27:09;;;;;;;23.73;17.10;;;;;;;14.13;100.00;93791.13;5054772;28;20444;-73
2023/11/03 06:29:36;;;;;;;27.83;18.30;;;;;;;14.20;100.00;93787.63;5054564;28;20906;-73
2023/11/03 06:32:03;;;;;;;31.20;18.27;;;;;;;14.34;100.00;93808.91;5054524;28;20449;-73
2023/11/03 06:34:30;;;;;;;28.57;19.80;;;;;;;14.43;100.00;93789.38;5054533;28;20821;-74
2023/11/03 06:36:56;;;;;;;28.17;18.03;;;;;;;14.52;100.00;93790.97;5053736;28;20442;-73
2023/11/03 06:39:24;;;;;;;27.90;17.70;;;;;;;14.47;99.61;93778.31;5053548;28;20852;-73
2023/11/03 06:41:52;;;;;;;21.43;15.40;;;;;;;14.49;100.00;93775.50;5053760;28;20465;-73
2023/11/03 06:44:19;;;;;;;21.53;14.70;;;;;;;14.38;100.00;93768.78;5019148;28;20451;-74
2023/11/03 06:46:45;;;;;;;24.43;15.50;;;;;;;14.36;100.00;93775.25;5054823;28;20438;-74
2023/11/03 06:49:12;;;;;;;19.80;14.60;;;;;;;14.40;100.00;93768.59;5054396;28;20446;-74
2023/11/03 06:51:42;;;;;;;21.97;14.50;;;;;;;14.34;100.00;93761.41;5053896;28;20801;-74
2023/11/03 06:54:09;;;;;;;30.13;15.60;;;;;;;14.32;100.00;93771.34;5054843;28;20442;-74
2023/11/03 06:56:36;;;;;;;21.03;14.80;;;;;;;14.35;100.00;93778.88;5054113;28;20441;-75
2023/11/03 06:59:06;;;;;;;21.97;15.37;;;;;;;14.33;100.00;93784.34;5054284;28;20535;-74
2023/11/03 07:01:34;;;;;;;19.37;12.17;;;;;;;14.31;100.00;93778.44;5053909;28;20928;-75
2023/11/03 07:04:01;;;;;;;20.57;13.97;;;;;;;14.27;100.00;93780.59;5053579;28;20529;-75
2023/11/03 07:06:28;;;;;;;21.23;14.70;;;;;;;14.35;100.00;93781.53;5053644;28;20441;-75
2023/11/03 07:08:55;;;;;;;20.90;13.13;;;;;;;14.35;100.00;93782.34;5053858;28;20454;-74
2023/11/03 07:11:24;;;;;;;18.37;13.57;;;;;;;14.33;100.00;93771.16;5053258;28;20887;-74
2023/11/03 07:13:52;;;;;;;18.43;15.03;;;;;;;14.45;100.00;93763.63;5053041;28;20449;-75
2023/11/03 07:16:20;;;;;;;22.23;15.07;;;;;;;14.63;100.00;93750.09;5054018;28;20869;-74
2023/11/03 07:18:47;;;;;;;17.83;13.73;;;;;;;14.81;100.00;93759.28;5053370;28;20852;-75
2023/11/03 07:21:14;;;;;;;25.33;15.13;;;;;;;14.91;100.00;93734.41;5053646;28;20938;-74
2023/11/03 07:23:41;;;;;;;26.30;16.50;;;;;;;14.96;99.61;93742.56;5053137;28;20453;-74
2023/11/03 07:26:08;;;;;;;19.30;15.27;;;;;;;15.05;99.24;93747.59;5052476;28;20453;-75
2023/11/03 07:28:34;;;;;;;24.43;15.90;;;;;;;15.04;97.93;93731.94;5017786;28;20933;-73
2023/11/03 07:31:03;;;;;;;24.00;15.10;;;;;;;15.00;98.52;93720.88;5034686;28;20449;-75
2023/11/03 07:33:32;;;;;;;23.73;16.70;;;;;;;15.15;98.96;93742.00;5053682;28;20500;-75
2023/11/03 07:35:59;;;;;;;22.93;14.73;;;;;;;15.24;98.57;93725.03;5053944;28;20478;-74
2023/11/03 07:38:27;;;;;;;28.50;17.57;;;;;;;15.24;100.00;93738.25;5053747;28;20450;-74
2023/11/03 07:40:54;;;;;;;24.00;15.73;;;;;;;15.15;99.59;93744.66;5053163;28;20474;-73
2023/11/03 07:43:22;;;;;;;23.07;16.10;;;;;;;15.10;100.00;93763.72;5052736;28;20454;-73
2023/11/03 07:45:50;;;;;;;24.67;17.07;;;;;;;15.04;100.00;93758.34;5052380;28;20790;-73
2023/11/03 07:48:17;;;;;;;24.80;16.30;;;;;;;14.94;99.50;93763.91;5052978;28;20483;-74
2023/11/03 07:50:45;;;;;;;24.00;15.17;;;;;;;14.88;100.00;93756.72;5053156;28;20457;-73
2023/11/03 07:53:12;;;;;;;21.63;13.90;;;;;;;14.88;100.00;93749.59;5053282;28;20438;-74
2023/11/03 07:55:39;;;;;;;20.83;15.13;;;;;;;14.98;100.00;93759.88;5053766;28;20445;-74
2023/11/03 07:58:05;;;;;;;24.40;15.00;;;;;;;15.02;99.63;93753.22;5053069;28;20556;-74
2023/11/03 08:00:32;;;;;;;18.10;13.00;;;;;;;15.00;97.99;93723.53;5053258;28;20481;-74
2023/11/03 08:02:59;;;;;;;16.77;12.30;;;;;;;15.00;99.04;93742.03;5053136;28;20437;-73
2023/11/03 08:05:26;;;;;;;22.00;14.40;;;;;;;15.01;97.93;93740.19;5052323;28;20715;-74
2023/11/03 08:07:54;;;;;;;20.43;13.60;;;;;;;14.83;97.50;93728.22;5052342;28;20440;-73
2023/11/03 08:10:21;;;;;;;24.20;13.67;;;;;;;14.88;98.18;93735.59;5052999;28;20453;-74
2023/11/03 08:12:48;;;;;;;19.50;14.30;;;;;;;14.95;97.82;93739.13;5052491;28;20946;-73
2023/11/03 08:15:15;;;;;;;18.30;13.23;;;;;;;14.90;99.18;93736.22;5052588;28;20933;-74
2023/11/03 08:17:43;;;;;;;24.83;16.40;;;;;;;14.96;98.27;93740.75;5052404;28;20438;-74
2023/11/03 08:20:11;;;;;;;20.63;15.27;;;;;;;15.02;98.75;93755.03;5053379;28;20710;-74
2023/11/03 08:22:39;;;;;;;22.67;16.07;;;;;;;14.92;97.94;93741.31;5052892;28;20450;-74
2023/11/03 08:25:08;;;;;;;22.70;15.70;;;;;;;14.99;100.00;93744.84;5052690;28;20442;-74
2023/11/03 08:27:37;;;;;;;23.87;14.40;;;;;;;15.05;100.00;93752.06;5053024;28;20442;-74
2023/11/03 08:30:04;;;;;;;20.77;14.03;;;;;;;15.03;100.00;93746.13;5052787;28;20442;-74
2023/11/03 08:32:31;;;;;;;19.73;12.37;;;;;;;15.06;98.32;93733.38;5053145;28;20817;-75
2023/11/03 08:34:58;;;;;;;25.57;15.60;;;;;;;15.14;100.00;93750.94;5052539;28;20473;-74
2023/11/03 08:37:25;;;;;;;25.07;14.37;;;;;;;15.14;97.41;93743.81;5052405;28;20470;-74
2023/11/03 08:39:52;;;;;;;22.00;15.70;;;;;;;15.15;97.81;93763.16;5052756;28;20558;-74
2023/11/03 08:42:21;;;;;;;24.67;15.57;;;;;;;15.08;97.25;93706.78;5033552;28;20426;-74
2023/11/03 08:44:48;;;;;;;23.43;15.70;;;;;;;14.98;97.91;93737.94;5053364;28;20986;-75
2023/11/03 08:47:15;;;;;;;20.77;14.97;;;;;;;15.07;99.29;93744.75;5052795;28;20445;-75
2023/11/03 08:49:43;;;;;;;24.80;16.73;;;;;;;15.16;99.93;93757.69;5052131;28;20445;-74
2023/11/03 08:52:10;;;;;;;26.37;14.27;;;;;;;15.01;97.21;93722.53;5052180;28;20443;-74
2023/11/03 08:54:37;;;;;;;25.97;15.17;;;;;;;15.17;98.65;93738.16;5052843;28;20469;-74
2023/11/03 08:57:05;;;;;;;18.10;14.87;;;;;;;15.25;98.34;93728.47;5055022;28;20488;-74
2023/11/03 08:59:33;;;;;;;27.40;18.57;;;;;;;15.24;96.89;93724.19;5055914;28;20563;-74
2023/11/03 09:02:00;;;;;;;28.93;19.60;;;;;;;15.27;98.37;93752.91;5055624;28;20874;-74
2023/11/03 09:04:27;;;;;;;28.90;20.00;;;;;;;15.28;97.56;93744.78;5054999;28;20447;-74
2023/11/03 09:06:53;;;;;;;22.93;16.90;;;;;;;15.32;97.25;93716.16;5055077;28;20517;-74
2023/11/03 09:09:22;;;;;;;23.37;14.83;;;;;;;15.38;96.85;93739.22;5055996;28;20454;-74
2023/11/03 09:11:49;;;;;;;21.17;15.60;;;;;;;15.49;98.79;93736.06;5055748;28;20443;-74
2023/11/03 09:14:15;;;;;;;29.77;17.50;;;;;;;15.41;98.07;93734.38;5055929;28;20438;-74
2023/11/03 09:16:44;;;;;;;26.17;15.93;;;;;;;15.36;96.58;93715.63;5037073;28;20434;-74
2023/11/03 09:19:11;;;;;;;25.80;16.53;;;;;;;15.31;97.57;93731.19;5054991;28;20472;-74
2023/11/03 09:21:38;;;;;;;22.63;14.77;;;;;;;15.36;96.86;93715.63;5055337;28;20453;-73
2023/11/03 09:24:06;;;;;;;21.70;14.67;;;;;;;15.48;96.60;93700.06;5036403;28;20986;-73
2023/11/03 09:26:33;;;;;;;19.23;13.40;;;;;;;15.72;95.41;93685.66;5055208;28;20451;-74
2023/11/03 09:29:00;;;;;;;19.40;14.10;;;;;;;15.85;92.33;93699.00;5054727;28;20500;-73
2023/11/03 09:31:28;;;;;;;16.37;12.50;;;;;;;16.06;91.86;93701.59;5054574;28;20974;-74
2023/11/03 09:33:56;;;;;;;20.70;13.77;;;;;;;16.15;93.47;93683.75;5055063;28;20438;-73
2023/11/03 09:36:23;;;;;;;23.43;14.73;;;;;;;16.26;92.48;93688.50;5054681;28;20473;-74
2023/11/03 09:38:50;;;;;;;20.00;14.90;;;;;;;16.35;92.79;93662.69;5019594;28;20454;-73
2023/11/03 09:41:19;;;;;;;21.07;14.33;;;;;;;16.47;91.66;93655.81;5054763;28;20486;-73
2023/11/03 09:43:47;;;;;;;17.20;13.13;;;;;;;16.69;90.96;93611.53;5054968;28;20442;-73
2023/11/03 09:46:15;;;;;;;14.30;11.97;;;;;;;16.85;87.03;93642.19;5055067;28;20492;-73
2023/11/03 09:48:42;;;;;;;13.63;10.67;;;;;;;17.09;85.40;93644.31;5055131;28;20813;-73
2023/11/03 09:51:12;;;;;;;15.13;9.10;;;;;;;17.40;82.33;93621.72;5054526;28;20523;-74
2023/11/03 09:53:42;;;;;;;16.07;12.90;;;;;;;17.58;84.36;93632.53;5054417;28;20438;-74
2023/11/03 09:56:09;;;;;;;15.53;10.90;;;;;;;17.69;79.33;93594.81;5054167;28;20456;-74
2023/11/03 09:58:37;;;;;;;18.57;12.37;;;;;;;17.86;81.37;93633.16;5054404;28;20468;-74
2023/11/03 10:01:08;;;;;;;15.33;10.00;;;;;;;18.01;81.05;93601.09;5054525;28;20527;-74
2023/11/03 10:03:37;;;;;;;16.00;11.80;;;;;;;18.13;80.14;93570.22;5020621;28;20449;-73
2023/11/03 10:06:05;;;;;;;23.27;12.93;;;;;;;18.22;81.40;93586.78;5054317;28;20456;-74
2023/11/03 10:08:33;;;;;;;24.13;13.80;;;;;;;18.19;80.27;93582.66;5053977;28;20454;-71
2023/11/03 10:11:04;;;;;;;17.97;12.50;;;;;;;18.14;80.87;93585.13;5054543;28;20454;-73
2023/11/03 10:13:32;;;;;;;20.97;13.17;;;;;;;18.14;81.01;93584.31;5054507;28;20499;-72
2023/11/03 10:16:00;;;;;;;14.90;11.33;;;;;;;18.11;77.92;93580.25;5054612;28;20447;-73
2023/11/03 10:18:27;;;;;;;14.40;10.93;;;;;;;18.17;79.44;93605.16;5053416;28;20524;-73
2023/11/03 10:20:56;;;;;;;12.50;9.87;;;;;;;18.27;77.63;93569.19;5053741;28;21031;-73
2023/11/03 10:23:23;;;;;;;13.67;10.37;;;;;;;18.36;77.48;93588.34;5053865;28;20543;-73
2023/11/03 10:25:52;;;;;;;18.87;11.27;;;;;;;18.44;77.57;93564.22;5053416;28;20447;-73
2023/11/03 10:28:19;;;;;;;19.90;12.20;;;;;;;18.47;77.75;93547.03;5053556;28;20443;-73
2023/11/03 10:30:55;;;;;;;20.17;12.03;;;;;;;18.46;76.60;93540.91;5053519;28;20500;-74
2023/11/03 10:33:23;;;;;;;15.47;11.00;;;;;;;18.48;77.18;93546.81;5053866;28;20488;-74
2023/11/03 10:35:51;;;;;;;14.53;11.23;;;;;;;18.62;78.18;93557.41;5053834;28;20961;-74
2023/11/03 10:38:19;;;;;;;24.43;11.97;;;;;;;18.72;76.64;93547.97;5054015;28;20505;-75
2023/11/03 10:40:46;;;;;;;15.43;10.60;;;;;;;18.80;77.01;93552.25;5034829;28;20514;-74
2023/11/03 10:43:15;;;;;;;27.63;10.83;;;;;;;18.84;75.29;93551.59;5034811;28;20456;-74
2023/11/03 10:45:51;;;;;;;15.47;10.77;;;;;;;18.90;77.01;93549.13;5053833;28;20436;-73
2023/11/03 10:48:26;;;;;;;13.30;9.80;;;;;;;18.99;73.92;93526.56;5053365;28;20445;-72
2023/11/03 10:50:59;;;;;;;9.70;8.57;;;;;;;19.13;74.44;93533.44;5019822;28;20445;-74
2023/11/03 10:53:37;;;;;;;10.40;8.67;;;;;;;19.23;73.27;93527.63;5053405;28;21007;-74
2023/11/03 10:56:06;;;;;;;15.33;10.13;;;;;;;19.28;72.42;93535.75;5053357;28;20972;-73
2023/11/03 10:58:37;;;;;;;14.90;10.33;;;;;;;19.30;71.91;93541.66;5053748;28;20453;-73
2023/11/03 11:01:08;;;;;;;14.17;8.93;;;;;;;19.28;73.26;93546.41;5052984;28;20504;-74
2023/11/03 11:03:43;;;;;;;18.10;11.97;;;;;;;19.31;74.04;93537.97;5018742;28;20492;-73
2023/11/03 11:06:19;;;;;;;12.20;9.67;;;;;;;19.29;73.73;93545.38;5052854;28;20446;-74
2023/11/03 11:08:47;;;;;;;12.50;9.93;;;;;;;19.27;73.46;93524.31;5052641;28;20528;-75
2023/11/03 11:11:15;;;;;;;14.20;11.87;;;;;;;19.05;72.96;93531.00;5052680;28;20438;-74
2023/11/03 11:13:43;;;;;;;12.57;10.30;;;;;;;19.07;73.00;93520.97;5053141;28;20449;-73